This is the latest recevied weather packets stored in our database for station/object DL3NBY. If no packets are shown the sender has not sent any weather packets the latest 10 day(s).
| Time | Temp. | Humidity | Pressure | Rain* | Wind** | Luminosity | Snow |
|---|---|---|---|---|---|---|---|
| 1777758637 | - | 1% | 1015.5 hPa | 0 mm | - | - | - |
| 1777752664 | - | 1% | 1015.8 hPa | 0 mm | - | - | - |
| 1777751458 | - | 1% | 1015.8 hPa | 0 mm | - | - | - |
| 1777749648 | - | 1% | 1015.6 hPa | 0 mm | - | - | - |
| 1777744852 | 17.22° C | 69% | 1015.4 hPa | 0 mm | - | - | - |
| 1777742460 | 22.78° C | 62% | 1015.4 hPa | 0 mm | - | - | - |
| 1777735868 | 25.56° C | 32% | 1016.7 hPa | 0 mm | - | - | - |
| 1777734659 | 25.56° C | 31% | 1016.7 hPa | 0 mm | - | - | - |
| 1777727421 | 26.67° C | 31% | 1018.2 hPa | 0 mm | - | - | - |
| 1777726818 | 26.67° C | 32% | 1018.4 hPa | 0 mm | - | - | - |
| 1777723259 | 25° C | 34% | 1019.2 hPa | 0 mm | - | - | - |
| 1777722656 | 25° C | 35% | 1019.4 hPa | 0 mm | - | - | - |
| 1777718434 | 22.78° C | 42% | 1020.3 hPa | 0 mm | - | - | - |
| 1777713055 | 20° C | 51% | 1021.5 hPa | 0 mm | - | - | - |
| 1777708833 | 16.11° C | 64% | 1022.4 hPa | 0 mm | - | - | - |
| 1777701655 | 7.78° C | 87% | 1022.9 hPa | 0 mm | - | - | - |
| 1777699243 | 6.11° C | 91% | 1022.9 hPa | 0 mm | - | - | - |
| 1777698056 | 5° C | 99% | 1022.9 hPa | 0 mm | - | - | - |
| 1777696227 | 1.11° C | 99% | 1022.8 hPa | 0 mm | - | - | - |
| 1777695020 | 0.56° C | 99% | 1022.9 hPa | 0 mm | - | - | - |
| 1777684846 | 1.67° C | 99% | 1023.4 hPa | 0 mm | - | - | - |
| 1777679457 | 2.78° C | 99% | 1023.6 hPa | 0 mm | - | - | - |
| 1777676441 | 3.89° C | 98% | 1023.8 hPa | 0 mm | - | - | - |
| 1777672822 | 5° C | 95% | 1023.8 hPa | 0 mm | - | - | - |
| 1777672219 | 5.56° C | 94% | 1023.8 hPa | 0 mm | - | - | - |
* Rain latest hour (hover to see other rain measurements)
** Current wind speed in m/s (hover to see current wind gust speed)